Time;durP1;ratioP1;P1;durP2;ratioP2;P2;SDS_P1;SDS_P2;PMS_P1;PMS_P2;Temp;Humidity;BMP_temperature;BMP_pressure;BME280_temperature;BME280_humidity;BME280_pressure;Samples;Min_cycle;Max_cycle;Signal;HPM_P1;HPM_P2
2021/09/17 00:01:28;;;;;;;20.53;13.43;;;16.60;99.90;;;;;;5080644;28;20501;-57
2021/09/17 00:03:56;;;;;;;21.70;13.50;;;16.70;99.90;;;;;;5072771;28;20516;-57
2021/09/17 00:06:23;;;;;;;21.50;12.63;;;16.70;99.90;;;;;;5073131;28;20990;-57
2021/09/17 00:08:50;;;;;;;21.87;13.17;;;16.70;99.90;;;;;;5072861;28;20451;-57
2021/09/17 00:11:17;;;;;;;22.57;13.00;;;16.60;99.90;;;;;;5065262;28;20503;-57
2021/09/17 00:13:45;;;;;;;22.00;11.70;;;16.50;99.90;;;;;;5072133;28;20548;-57
2021/09/17 00:16:12;;;;;;;22.40;12.33;;;16.30;99.90;;;;;;5072867;28;20475;-57
2021/09/17 00:18:38;;;;;;;20.20;12.90;;;16.30;99.90;;;;;;5072871;28;20455;-57
2021/09/17 00:21:07;;;;;;;21.83;12.30;;;16.40;99.90;;;;;;5075889;28;20454;-57
2021/09/17 00:23:34;;;;;;;17.27;11.40;;;16.30;99.90;;;;;;5092644;28;20539;-57
2021/09/17 00:26:01;;;;;;;22.30;12.23;;;16.20;99.90;;;;;;5092906;28;20935;-57
2021/09/17 00:28:28;;;;;;;19.30;11.80;;;16.30;99.90;;;;;;5089188;28;20510;-57
2021/09/17 00:30:55;;;;;;;14.90;10.40;;;16.40;99.90;;;;;;5063410;28;20959;-57
2021/09/17 00:33:22;;;;;;;17.77;11.60;;;16.40;99.90;;;;;;5092934;28;20907;-57
2021/09/17 00:35:49;;;;;;;22.10;11.60;;;16.20;99.90;;;;;;5092791;28;20527;-57
2021/09/17 00:38:17;;;;;;;21.10;13.10;;;16.00;99.90;;;;;;5093164;28;20446;-57
2021/09/17 00:40:44;;;;;;;20.10;12.03;;;16.00;99.90;;;;;;5091648;28;20446;-57
2021/09/17 00:43:11;;;;;;;19.33;12.20;;;16.00;99.90;;;;;;5072346;28;20466;-58
2021/09/17 00:45:38;;;;;;;18.53;11.50;;;15.90;99.90;;;;;;5063857;28;20875;-57
2021/09/17 00:48:05;;;;;;;18.47;12.10;;;16.00;99.90;;;;;;5052396;28;20502;-58
2021/09/17 00:50:32;;;;;;;18.30;12.10;;;16.10;99.90;;;;;;5052284;28;20451;-57
2021/09/17 00:52:59;;;;;;;17.00;10.67;;;16.20;99.90;;;;;;5090232;28;20998;-57
2021/09/17 00:55:28;;;;;;;20.60;12.10;;;16.30;99.90;;;;;;5092367;28;20994;-58
2021/09/17 00:57:55;;;;;;;17.20;11.57;;;16.30;99.90;;;;;;5092467;28;20442;-57
2021/09/17 01:00:22;;;;;;;18.20;11.87;;;16.30;99.90;;;;;;5067593;28;20455;-57
2021/09/17 01:02:49;;;;;;;15.83;10.50;;;16.30;99.90;;;;;;5072861;28;20532;-57
2021/09/17 01:05:20;;;;;;;15.47;10.80;;;16.30;99.90;;;;;;5066578;28;20452;-57
2021/09/17 01:07:47;;;;;;;17.10;11.37;;;16.30;99.90;;;;;;5052439;28;20505;-57
2021/09/17 01:10:15;;;;;;;16.77;11.00;;;16.40;99.90;;;;;;5051617;28;20448;-57
2021/09/17 01:12:43;;;;;;;18.83;12.10;;;16.40;99.90;;;;;;5084114;28;20480;-57
2021/09/17 01:15:12;;;;;;;14.00;9.97;;;16.40;99.90;;;;;;5092349;28;20564;-57
2021/09/17 01:17:41;;;;;;;17.77;11.70;;;16.30;99.90;;;;;;5090251;28;20479;-57
2021/09/17 01:20:11;;;;;;;20.47;12.40;;;16.30;99.90;;;;;;5076453;28;20454;-57
2021/09/17 01:22:40;;;;;;;18.30;12.67;;;16.20;99.90;;;;;;5051836;28;20479;-57
2021/09/17 01:25:09;;;;;;;20.80;13.30;;;16.10;99.90;;;;;;5051685;28;20521;-57
2021/09/17 01:27:36;;;;;;;19.47;12.00;;;16.00;99.90;;;;;;5051896;28;20462;-57
2021/09/17 01:30:05;;;;;;;15.33;9.93;;;16.10;99.90;;;;;;5069246;28;20447;-57
2021/09/17 01:32:32;;;;;;;21.40;12.50;;;16.30;99.90;;;;;;5071718;28;20467;-57
2021/09/17 01:34:59;;;;;;;21.47;11.67;;;16.30;99.90;;;;;;5070429;28;20492;-57
2021/09/17 01:37:26;;;;;;;21.87;13.10;;;16.40;99.90;;;;;;5069658;28;20450;-57
2021/09/17 01:39:55;;;;;;;20.60;13.40;;;16.40;99.90;;;;;;5069811;28;21004;-57
2021/09/17 01:42:22;;;;;;;21.30;12.80;;;16.30;99.90;;;;;;5071310;28;20870;-57
2021/09/17 01:44:49;;;;;;;21.00;12.50;;;16.40;99.90;;;;;;5086714;28;20950;-57
2021/09/17 01:47:16;;;;;;;20.30;12.23;;;16.40;99.90;;;;;;5091893;28;20470;-57
2021/09/17 01:49:43;;;;;;;18.37;12.23;;;16.40;99.90;;;;;;5063951;28;20510;-57
2021/09/17 01:52:10;;;;;;;17.77;11.97;;;16.30;99.90;;;;;;5052200;28;20498;-57
2021/09/17 01:54:37;;;;;;;15.67;10.73;;;16.40;99.90;;;;;;5078813;28;20457;-58
2021/09/17 01:57:06;;;;;;;18.63;12.00;;;16.50;99.90;;;;;;5091566;28;20509;-57
2021/09/17 01:59:33;;;;;;;20.03;12.77;;;16.30;99.90;;;;;;5091596;28;20805;-57
2021/09/17 02:02:00;;;;;;;20.13;12.60;;;16.40;99.90;;;;;;5091398;28;20449;-57
2021/09/17 02:04:27;;;;;;;17.20;11.20;;;16.40;99.90;;;;;;5089708;28;20914;-57
2021/09/17 02:06:54;;;;;;;19.87;13.10;;;16.50;99.90;;;;;;5069206;28;20442;-57
2021/09/17 02:09:21;;;;;;;17.23;12.03;;;16.50;99.90;;;;;;5071503;28;20802;-57
2021/09/17 02:11:48;;;;;;;19.03;13.20;;;16.50;99.90;;;;;;5071052;28;20504;-57
2021/09/17 02:14:16;;;;;;;17.87;11.43;;;16.40;99.90;;;;;;5089271;28;20474;-57
2021/09/17 02:16:43;;;;;;;15.80;10.70;;;16.40;99.90;;;;;;5091502;28;20550;-57
2021/09/17 02:19:10;;;;;;;18.20;11.60;;;16.50;99.90;;;;;;5091671;28;20446;-57
2021/09/17 02:21:39;;;;;;;13.60;9.40;;;16.60;99.90;;;;;;5083728;28;20512;-58
2021/09/17 02:24:06;;;;;;;17.63;11.70;;;16.60;99.90;;;;;;5074198;28;20864;-57
2021/09/17 02:26:33;;;;;;;16.20;11.10;;;16.60;99.90;;;;;;5070685;28;20443;-57
2021/09/17 02:29:01;;;;;;;19.90;12.27;;;16.50;99.90;;;;;;5055057;28;20451;-57
2021/09/17 02:31:29;;;;;;;16.63;10.60;;;16.50;99.90;;;;;;5054716;28;20936;-57
2021/09/17 02:33:56;;;;;;;18.27;12.30;;;16.50;99.90;;;;;;5075068;28;20466;-57
2021/09/17 02:36:23;;;;;;;21.37;12.60;;;16.50;99.90;;;;;;5074321;28;20912;-57
2021/09/17 02:38:50;;;;;;;22.50;12.13;;;16.40;99.90;;;;;;5061501;28;20496;-57
2021/09/17 02:41:17;;;;;;;16.10;11.27;;;16.40;99.90;;;;;;5074532;28;20463;-57
2021/09/17 02:43:45;;;;;;;19.53;11.97;;;16.30;99.90;;;;;;5069469;28;20516;-57
2021/09/17 02:46:12;;;;;;;19.13;10.50;;;16.30;99.90;;;;;;5074848;28;20561;-57
2021/09/17 02:48:40;;;;;;;19.37;11.80;;;16.40;99.90;;;;;;5074669;28;20508;-58
2021/09/17 02:51:07;;;;;;;16.73;11.90;;;16.30;99.90;;;;;;5074536;28;20826;-57
2021/09/17 02:53:34;;;;;;;15.23;10.37;;;16.30;99.90;;;;;;5069436;28;20476;-58
2021/09/17 02:56:01;;;;;;;18.03;11.30;;;16.40;99.90;;;;;;5054488;28;20540;-58
2021/09/17 02:58:28;;;;;;;18.23;11.83;;;16.30;99.90;;;;;;5071253;28;20512;-58
2021/09/17 03:00:55;;;;;;;17.47;11.40;;;16.40;99.90;;;;;;5075220;28;20514;-57
2021/09/17 03:03:22;;;;;;;18.17;12.33;;;16.30;99.90;;;;;;5073708;28;21041;-57
2021/09/17 03:05:50;;;;;;;14.63;10.70;;;16.20;99.90;;;;;;5083562;28;21008;-58
2021/09/17 03:08:17;;;;;;;20.00;13.30;;;16.30;99.90;;;;;;5094538;28;20449;-57
2021/09/17 03:10:44;;;;;;;16.93;11.97;;;16.10;99.90;;;;;;5092667;28;20450;-58
2021/09/17 03:13:11;;;;;;;17.67;11.73;;;16.20;99.90;;;;;;5076025;28;20906;-58
2021/09/17 03:15:38;;;;;;;17.13;11.90;;;16.20;99.90;;;;;;5073942;28;20450;-57
2021/09/17 03:18:05;;;;;;;19.43;12.73;;;16.20;99.90;;;;;;5071404;28;21026;-57
2021/09/17 03:20:33;;;;;;;19.13;12.07;;;16.10;99.90;;;;;;5053919;28;20456;-57
2021/09/17 03:23:01;;;;;;;16.50;10.73;;;16.20;99.90;;;;;;5074578;28;20478;-57
2021/09/17 03:25:28;;;;;;;15.33;10.10;;;16.30;99.90;;;;;;5073874;28;20963;-57
2021/09/17 03:27:55;;;;;;;14.90;11.07;;;16.30;99.90;;;;;;5074164;28;20504;-58
2021/09/17 03:30:23;;;;;;;17.17;11.00;;;16.30;99.90;;;;;;5053664;28;20456;-57
2021/09/17 03:32:50;;;;;;;16.67;10.80;;;16.30;99.90;;;;;;5070859;28;20470;-57
2021/09/17 03:35:19;;;;;;;17.33;10.57;;;16.20;99.90;;;;;;5073824;28;20508;-57
2021/09/17 03:37:46;;;;;;;16.40;11.87;;;16.20;99.90;;;;;;5073638;28;20539;-57
2021/09/17 03:40:15;;;;;;;16.47;10.17;;;16.20;99.90;;;;;;5073440;28;20455;-57
2021/09/17 03:42:42;;;;;;;14.53;10.47;;;16.20;99.90;;;;;;5074508;28;20991;-57
2021/09/17 03:45:10;;;;;;;17.13;10.80;;;16.20;99.90;;;;;;5077176;28;20932;-57
2021/09/17 03:47:37;;;;;;;16.23;11.43;;;16.30;99.90;;;;;;5063019;28;20891;-57
2021/09/17 03:50:04;;;;;;;16.20;10.33;;;16.30;99.90;;;;;;5065524;28;20520;-57
2021/09/17 03:52:31;;;;;;;16.53;11.10;;;16.30;99.90;;;;;;5073731;28;21045;-58
2021/09/17 03:54:59;;;;;;;18.00;11.37;;;16.20;99.90;;;;;;5073369;28;21006;-58
2021/09/17 03:57:27;;;;;;;18.33;10.87;;;16.00;99.90;;;;;;5073447;28;20876;-57
2021/09/17 03:59:54;;;;;;;17.90;12.13;;;16.00;99.90;;;;;;5073468;28;20454;-57
2021/09/17 04:02:21;;;;;;;19.00;11.70;;;16.10;99.90;;;;;;5072567;28;20531;-57
2021/09/17 04:04:48;;;;;;;14.67;10.40;;;16.10;99.90;;;;;;5073120;28;20934;-57
2021/09/17 04:07:15;;;;;;;14.03;10.30;;;16.00;99.90;;;;;;5071313;28;20505;-58
2021/09/17 04:09:42;;;;;;;13.90;9.70;;;16.00;99.90;;;;;;5057328;28;20509;-57
2021/09/17 04:12:09;;;;;;;13.30;9.30;;;16.10;99.90;;;;;;5065991;28;21077;-57
2021/09/17 04:14:37;;;;;;;13.93;10.00;;;16.00;99.90;;;;;;5073272;28;20450;-57
2021/09/17 04:17:05;;;;;;;14.50;9.80;;;16.00;99.90;;;;;;5070140;28;20474;-57
2021/09/17 04:19:36;;;;;;;13.80;10.07;;;16.10;99.90;;;;;;5066044;28;20451;-57
2021/09/17 04:22:04;;;;;;;14.10;9.27;;;16.10;99.90;;;;;;5073387;28;20459;-57
2021/09/17 04:24:31;;;;;;;14.43;10.30;;;16.00;99.90;;;;;;5052600;28;20475;-57
2021/09/17 04:26:58;;;;;;;15.07;10.20;;;16.10;99.90;;;;;;5072922;28;20443;-57
2021/09/17 04:29:25;;;;;;;14.77;9.17;;;16.10;99.90;;;;;;5072273;28;20443;-57
2021/09/17 04:31:53;;;;;;;14.90;9.33;;;16.10;99.90;;;;;;5059818;28;20510;-57
2021/09/17 04:34:20;;;;;;;16.60;10.07;;;16.10;99.90;;;;;;5070459;28;20474;-57
2021/09/17 04:36:47;;;;;;;14.90;10.67;;;16.10;99.90;;;;;;5070992;28;20486;-58
2021/09/17 04:39:14;;;;;;;15.70;10.53;;;16.20;99.90;;;;;;5071347;28;20451;-57
2021/09/17 04:41:41;;;;;;;17.07;10.90;;;16.10;99.90;;;;;;5067513;28;20863;-57
2021/09/17 04:44:09;;;;;;;17.80;11.37;;;16.10;99.90;;;;;;5063751;28;20475;-57
2021/09/17 04:46:36;;;;;;;18.20;11.53;;;15.90;99.90;;;;;;5063797;28;21001;-57
2021/09/17 04:49:05;;;;;;;15.60;11.07;;;15.80;99.90;;;;;;5070925;28;20501;-57
2021/09/17 04:51:32;;;;;;;24.77;14.80;;;15.70;99.90;;;;;;5064095;28;20461;-57
2021/09/17 04:53:59;;;;;;;21.97;13.23;;;15.50;99.90;;;;;;5067494;28;20578;-57
2021/09/17 04:56:26;;;;;;;20.73;12.80;;;15.50;99.90;;;;;;5070206;28;20491;-57
2021/09/17 04:58:53;;;;;;;21.67;13.70;;;15.40;99.90;;;;;;5065257;28;20450;-58
2021/09/17 05:01:21;;;;;;;25.90;14.63;;;15.40;99.90;;;;;;5069203;28;20451;-58
2021/09/17 05:03:50;;;;;;;22.07;13.53;;;15.50;99.90;;;;;;5068422;28;20504;-59
2021/09/17 05:06:18;;;;;;;23.40;13.70;;;15.50;99.90;;;;;;5069988;28;20478;-58
2021/09/17 05:08:46;;;;;;;21.20;13.37;;;15.50;99.90;;;;;;5067197;28;20870;-59
2021/09/17 05:11:14;;;;;;;20.17;13.03;;;15.50;99.90;;;;;;5069651;28;20501;-59
2021/09/17 05:13:41;;;;;;;24.97;14.37;;;15.70;99.90;;;;;;5069975;28;20467;-59
2021/09/17 05:16:09;;;;;;;21.90;13.20;;;15.80;99.90;;;;;;5070423;28;20446;-59
2021/09/17 05:18:36;;;;;;;17.77;12.37;;;15.80;99.90;;;;;;5070683;28;20509;-59
2021/09/17 05:21:03;;;;;;;20.93;13.03;;;15.90;99.90;;;;;;5070446;28;20450;-58
2021/09/17 05:23:31;;;;;;;17.37;11.17;;;15.90;99.90;;;;;;5070455;28;20479;-59
2021/09/17 05:25:58;;;;;;;16.57;11.97;;;15.80;99.90;;;;;;5067563;28;20447;-59
2021/09/17 05:28:26;;;;;;;14.40;10.30;;;15.70;99.90;;;;;;5070472;28;20439;-58
2021/09/17 05:30:53;;;;;;;15.67;10.57;;;15.60;99.90;;;;;;5070414;28;20888;-59
2021/09/17 05:33:20;;;;;;;16.97;11.10;;;15.70;99.90;;;;;;5068888;28;20475;-59
2021/09/17 05:35:47;;;;;;;15.40;10.33;;;15.70;99.90;;;;;;5056608;28;20440;-59
2021/09/17 05:38:14;;;;;;;14.30;10.30;;;15.80;99.90;;;;;;5070362;28;20501;-59
2021/09/17 05:40:43;;;;;;;16.10;10.20;;;15.90;99.90;;;;;;5069945;28;20443;-59
2021/09/17 05:43:10;;;;;;;16.50;10.60;;;15.90;99.90;;;;;;5069509;28;20479;-59
2021/09/17 05:45:37;;;;;;;18.50;11.23;;;16.00;99.90;;;;;;5070627;28;20516;-58
2021/09/17 05:48:04;;;;;;;18.07;11.33;;;16.10;99.90;;;;;;5066286;28;20473;-59
2021/09/17 05:50:31;;;;;;;15.03;11.47;;;15.90;99.90;;;;;;5067103;28;20968;-59
2021/09/17 05:52:58;;;;;;;17.27;10.50;;;15.90;99.90;;;;;;5068748;28;21045;-59
2021/09/17 05:55:27;;;;;;;15.83;10.33;;;15.90;99.90;;;;;;5070149;28;20944;-59
2021/09/17 05:57:55;;;;;;;15.23;10.50;;;16.00;99.90;;;;;;5069717;28;20571;-59
2021/09/17 06:00:26;;;;;;;17.03;11.67;;;15.90;99.90;;;;;;5063504;28;20502;-59
2021/09/17 06:02:53;;;;;;;14.83;9.80;;;15.90;99.90;;;;;;5055836;28;20459;-59
2021/09/17 06:05:20;;;;;;;14.60;10.40;;;15.90;99.90;;;;;;5070906;28;20451;-59
2021/09/17 06:07:47;;;;;;;16.40;10.27;;;15.90;99.90;;;;;;5070720;28;20980;-59
2021/09/17 06:10:17;;;;;;;14.70;10.37;;;16.00;99.90;;;;;;5090606;28;20438;-59
2021/09/17 06:12:44;;;;;;;16.53;11.00;;;16.10;99.90;;;;;;5079998;28;20468;-59
2021/09/17 06:15:16;;;;;;;16.50;10.70;;;16.10;99.90;;;;;;5082308;28;20451;-59
2021/09/17 06:17:43;;;;;;;17.80;11.67;;;16.20;99.90;;;;;;5072065;28;20520;-59
2021/09/17 06:20:11;;;;;;;16.97;11.10;;;16.20;99.90;;;;;;5074786;28;20446;-65
2021/09/17 06:22:41;;;;;;;16.30;10.60;;;16.20;99.90;;;;;;5071536;28;20486;-59
2021/09/17 06:25:10;;;;;;;19.73;11.13;;;16.20;99.90;;;;;;5073015;28;20490;-59
2021/09/17 06:27:36;;;;;;;17.80;11.20;;;16.30;99.90;;;;;;5072063;28;20442;-59
2021/09/17 06:30:04;;;;;;;20.33;11.40;;;16.50;99.90;;;;;;5058078;28;20493;-59
2021/09/17 06:32:33;;;;;;;16.87;12.00;;;16.40;99.90;;;;;;5073312;28;20512;-59
2021/09/17 06:35:00;;;;;;;18.73;12.17;;;16.40;99.90;;;;;;5072009;28;21063;-59
2021/09/17 06:37:27;;;;;;;16.77;11.10;;;16.40;99.90;;;;;;5069862;28;20908;-59
2021/09/17 06:39:54;;;;;;;14.57;10.73;;;16.50;99.90;;;;;;5073262;28;20515;-59
2021/09/17 06:42:21;;;;;;;14.10;10.20;;;16.50;99.90;;;;;;5063690;28;20524;-59
2021/09/17 06:44:48;;;;;;;14.67;10.47;;;16.70;99.90;;;;;;5073473;28;20451;-59
2021/09/17 06:47:15;;;;;;;18.03;11.60;;;16.80;99.90;;;;;;5061073;28;20476;-59
2021/09/17 06:49:43;;;;;;;15.97;11.20;;;16.90;99.90;;;;;;5067201;28;20444;-59
2021/09/17 06:52:10;;;;;;;23.80;12.53;;;17.00;99.90;;;;;;5065534;28;20488;-59
2021/09/17 06:54:40;;;;;;;16.10;12.23;;;17.10;99.90;;;;;;5072509;28;20477;-60
2021/09/17 06:57:07;;;;;;;16.77;11.23;;;17.10;99.90;;;;;;5073015;28;20484;-59
2021/09/17 06:59:34;;;;;;;16.67;11.20;;;17.30;99.90;;;;;;5074100;28;20451;-59
2021/09/17 07:02:01;;;;;;;17.30;11.40;;;17.40;99.90;;;;;;5073885;28;20515;-59
2021/09/17 07:04:28;;;;;;;16.40;11.53;;;17.50;99.90;;;;;;5072232;28;22396;-60
2021/09/17 07:06:56;;;;;;;15.63;11.13;;;17.60;99.90;;;;;;5072928;28;20508;-60
2021/09/17 07:09:23;;;;;;;15.13;10.37;;;17.80;99.90;;;;;;5074257;28;20933;-59
2021/09/17 07:11:50;;;;;;;14.03;10.40;;;18.10;99.90;;;;;;5074332;28;20504;-60
2021/09/17 07:14:17;;;;;;;13.77;9.97;;;18.70;99.90;;;;;;5073548;28;20474;-60
2021/09/17 07:16:44;;;;;;;12.80;8.87;;;19.40;99.90;;;;;;5073277;28;20446;-60
2021/09/17 07:19:11;;;;;;;11.77;8.30;;;20.10;99.90;;;;;;5072585;28;20458;-61
2021/09/17 07:21:38;;;;;;;12.43;9.30;;;21.00;99.90;;;;;;5073321;28;20884;-60
2021/09/17 07:24:07;;;;;;;14.70;9.97;;;21.60;99.90;;;;;;5072918;28;20478;-60
2021/09/17 07:26:33;;;;;;;13.40;9.30;;;21.40;99.90;;;;;;5073639;28;20873;-60
2021/09/17 07:29:00;;;;;;;12.60;9.63;;;21.20;99.90;;;;;;5075326;28;20504;-60
2021/09/17 07:31:27;;;;;;;12.60;9.43;;;21.10;99.90;;;;;;5073393;28;20886;-60
2021/09/17 07:33:54;;;;;;;14.73;10.07;;;20.80;99.90;;;;;;5071206;28;20467;-60
2021/09/17 07:36:21;;;;;;;11.50;8.80;;;20.60;99.90;;;;;;5068958;28;20488;-60
2021/09/17 07:38:48;;;;;;;14.57;8.70;;;19.90;99.90;;;;;;5073156;28;20478;-59
2021/09/17 07:41:17;;;;;;;12.20;8.87;;;20.30;99.90;;;;;;5071984;28;20451;-60
2021/09/17 07:43:44;;;;;;;10.20;8.13;;;20.20;99.90;;;;;;5071240;28;20471;-60
2021/09/17 07:46:11;;;;;;;12.50;8.23;;;19.90;99.90;;;;;;5072842;28;20469;-60
2021/09/17 07:48:37;;;;;;;13.37;8.33;;;20.50;99.90;;;;;;5073183;28;20435;-60
2021/09/17 07:51:05;;;;;;;13.20;9.90;;;20.70;99.90;;;;;;5072816;28;20443;-60
2021/09/17 07:53:31;;;;;;;12.10;9.57;;;21.00;99.90;;;;;;5068331;28;20526;-61
2021/09/17 07:55:58;;;;;;;13.10;8.60;;;20.90;99.90;;;;;;5071752;28;20944;-61
2021/09/17 07:58:27;;;;;;;14.13;9.73;;;21.50;99.90;;;;;;5073444;28;20482;-60
2021/09/17 08:00:54;;;;;;;14.27;10.93;;;20.80;99.90;;;;;;5073011;28;20496;-61
2021/09/17 08:03:21;;;;;;;15.80;10.93;;;19.40;99.90;;;;;;5073332;28;20482;-60
2021/09/17 08:05:49;;;;;;;17.97;9.90;;;18.80;99.90;;;;;;5073065;28;20474;-60
2021/09/17 08:08:16;;;;;;;13.23;9.77;;;18.90;99.90;;;;;;5073015;28;20443;-61
2021/09/17 08:10:43;;;;;;;13.00;9.67;;;19.30;99.90;;;;;;5072782;28;21006;-60
2021/09/17 08:13:10;;;;;;;10.77;8.33;;;19.80;99.90;;;;;;5072944;28;21042;-62
2021/09/17 08:15:38;;;;;;;14.50;8.70;;;20.80;99.90;;;;;;5072945;28;20508;-60
2021/09/17 08:18:05;;;;;;;13.10;9.40;;;21.10;99.90;;;;;;5072785;28;20532;-60
2021/09/17 08:20:32;;;;;;;14.10;8.03;;;20.40;99.90;;;;;;5071990;28;20877;-61
2021/09/17 08:22:59;;;;;;;15.30;9.37;;;20.20;99.90;;;;;;5072213;28;20478;-60
2021/09/17 08:25:26;;;;;;;13.33;9.70;;;20.20;99.90;;;;;;5073022;28;20501;-60
2021/09/17 08:27:53;;;;;;;15.90;8.97;;;19.50;99.90;;;;;;5072798;28;20834;-60
2021/09/17 08:30:20;;;;;;;12.73;9.10;;;19.10;99.90;;;;;;5072553;28;20944;-61
2021/09/17 08:32:48;;;;;;;11.60;7.70;;;18.80;99.90;;;;;;5072304;28;20922;-60
2021/09/17 08:35:15;;;;;;;10.60;8.30;;;18.80;99.90;;;;;;5072617;28;20500;-60
2021/09/17 08:37:43;;;;;;;13.03;8.60;;;19.00;99.90;;;;;;5072484;28;20996;-60
2021/09/17 08:40:11;;;;;;;11.40;7.63;;;19.10;99.90;;;;;;5072040;28;20451;-60
2021/09/17 08:42:38;;;;;;;13.83;7.93;;;19.50;99.90;;;;;;5072356;28;20470;-60
2021/09/17 08:45:07;;;;;;;11.40;7.70;;;19.80;99.90;;;;;;5072388;28;20505;-60
2021/09/17 08:47:34;;;;;;;11.77;8.57;;;19.90;99.90;;;;;;5072355;28;20451;-60
2021/09/17 08:50:02;;;;;;;10.80;8.37;;;19.40;99.90;;;;;;5072506;28;20500;-60
2021/09/17 08:52:29;;;;;;;13.37;8.80;;;19.20;99.90;;;;;;5072236;28;20508;-60
2021/09/17 08:54:56;;;;;;;10.60;7.80;;;18.80;99.90;;;;;;5072232;28;20451;-60
2021/09/17 08:57:23;;;;;;;11.17;8.83;;;18.90;99.90;;;;;;5072138;28;20936;-60
2021/09/17 08:59:50;;;;;;;15.03;9.80;;;19.00;99.90;;;;;;5072082;28;20940;-60
2021/09/17 09:02:22;;;;;;;12.67;9.33;;;19.10;99.90;;;;;;5071780;28;20451;-60
2021/09/17 09:04:57;;;;;;;11.20;8.30;;;19.30;99.90;;;;;;5072099;28;20450;-60
2021/09/17 09:07:31;;;;;;;12.80;9.15;;;19.50;99.90;;;;;;5069564;28;20446;-60
2021/09/17 09:10:08;;;;;;;11.90;8.03;;;19.80;99.90;;;;;;5068542;28;20196;-60
2021/09/17 09:12:35;;;;;;;11.50;8.60;;;20.20;99.90;;;;;;5070359;28;20983;-61
2021/09/17 09:15:14;;;;;;;13.07;7.53;;;20.80;99.90;;;;;;5070835;28;20442;-60
2021/09/17 09:17:41;;;;;;;10.37;7.57;;;21.40;99.90;;;;;;5079582;28;20484;-60
2021/09/17 09:20:25;;;;;;;9.50;7.27;;;21.60;99.90;;;;;;5071151;28;20455;-60
2021/09/17 09:23:15;;;;;;;7.60;6.53;;;22.00;99.90;;;;;;5070157;28;20494;-60
2021/09/17 09:25:57;;;;;;;8.73;6.90;;;22.00;99.90;;;;;;5071250;28;20451;-61
2021/09/17 09:28:26;;;;;;;9.40;7.10;;;21.30;99.90;;;;;;5071227;28;20519;-60
2021/09/17 09:30:54;;;;;;;12.67;7.30;;;21.00;99.90;;;;;;5052651;28;20455;-60
2021/09/17 09:33:23;;;;;;;7.10;6.40;;;20.70;99.90;;;;;;5052167;28;20467;-60
2021/09/17 09:35:56;;;;;;;9.30;6.80;;;20.80;99.90;;;;;;5051433;28;20882;-59
2021/09/17 09:38:37;;;;;;;6.87;6.17;;;21.00;99.90;;;;;;5064092;28;21280;-59
2021/09/17 09:41:06;;;;;;;10.47;5.73;;;20.90;99.90;;;;;;5071128;28;20482;-59
2021/09/17 09:43:35;;;;;;;8.10;6.43;;;21.00;99.90;;;;;;5071334;28;20467;-58
2021/09/17 09:46:23;;;;;;;9.27;6.60;;;20.80;99.90;;;;;;5071332;28;20446;-59
2021/09/17 09:49:09;;;;;;;8.40;6.10;;;20.60;99.90;;;;;;5071368;28;20492;-61
2021/09/17 09:51:39;;;;;;;8.10;5.93;;;21.60;99.90;;;;;;5073081;28;20451;-60
2021/09/17 09:54:09;;;;;;;7.10;6.00;;;22.00;99.90;;;;;;5079130;28;21048;-61
2021/09/17 09:56:38;;;;;;;7.07;6.27;;;21.20;99.90;;;;;;5071533;28;20497;-60
2021/09/17 09:59:07;;;;;;;8.10;5.67;;;20.70;99.90;;;;;;5053867;28;21078;-59
2021/09/17 10:01:36;;;;;;;7.60;6.10;;;20.20;99.90;;;;;;5051977;28;20452;-60
2021/09/17 10:04:04;;;;;;;7.50;5.63;;;20.30;99.90;;;;;;5051240;28;20525;-59
2021/09/17 10:06:34;;;;;;;7.90;5.87;;;20.30;99.90;;;;;;5051256;28;20483;-59
2021/09/17 10:09:02;;;;;;;9.07;5.73;;;20.20;99.90;;;;;;5051313;28;20796;-59
2021/09/17 10:11:30;;;;;;;9.90;6.50;;;20.30;99.90;;;;;;5061166;28;20459;-59
2021/09/17 10:14:01;;;;;;;7.50;6.00;;;20.10;99.90;;;;;;5069581;28;20462;-59
2021/09/17 10:16:30;;;;;;;7.73;6.33;;;20.00;99.90;;;;;;5071123;28;20940;-60
2021/09/17 10:18:59;;;;;;;7.40;5.73;;;20.20;99.90;;;;;;5070998;28;20474;-58
2021/09/17 10:21:48;;;;;;;7.70;6.20;;;20.20;99.90;;;;;;5071432;28;20455;-58
2021/09/17 10:24:37;;;;;;;7.40;5.90;;;20.60;99.90;;;;;;5070738;28;20478;-60
2021/09/17 10:27:08;;;;;;;5.80;4.93;;;21.00;99.90;;;;;;5073945;28;20905;-59
2021/09/17 10:29:37;;;;;;;6.77;5.50;;;20.80;99.90;;;;;;5071007;28;20496;-58
2021/09/17 10:32:06;;;;;;;5.40;4.90;;;20.70;99.90;;;;;;5064464;28;20512;-59
2021/09/17 10:34:38;;;;;;;7.37;5.90;;;20.50;99.90;;;;;;5071243;28;20463;-59
2021/09/17 10:37:06;;;;;;;7.83;5.33;;;19.90;99.90;;;;;;5071019;28;20447;-59
2021/09/17 10:39:33;;;;;;;5.27;4.77;;;20.20;99.90;;;;;;5052848;28;20533;-59
2021/09/17 10:42:09;;;;;;;5.40;4.23;;;20.70;99.90;;;;;;5050287;28;20903;-58
2021/09/17 10:45:09;;;;;;;5.47;4.40;;;20.70;99.90;;;;;;5054670;28;20532;-59
2021/09/17 10:48:01;;;;;;;6.50;4.80;;;20.80;99.90;;;;;;5063037;28;20507;-58
2021/09/17 10:50:43;;;;;;;6.30;5.20;;;20.40;99.90;;;;;;5074102;28;20522;-58
2021/09/17 10:53:12;;;;;;;5.33;4.70;;;20.30;99.90;;;;;;5074494;28;21035;-58
2021/09/17 10:56:05;;;;;;;4.97;4.57;;;20.50;99.90;;;;;;5074296;28;20488;-59
2021/09/17 10:58:34;;;;;;;7.70;4.77;;;20.40;99.90;;;;;;5074255;28;20563;-58
2021/09/17 11:01:03;;;;;;;5.73;4.70;;;20.20;99.90;;;;;;5074223;28;20876;-59
2021/09/17 11:03:57;;;;;;;5.77;5.13;;;20.00;99.90;;;;;;5061044;28;20467;-58
2021/09/17 11:06:29;;;;;;;4.37;3.97;;;19.70;99.90;;;;;;5054271;28;20451;-58
2021/09/17 11:09:01;;;;;;;5.20;4.20;;;20.00;99.90;;;;;;5054342;28;20428;-59
2021/09/17 11:11:30;;;;;;;6.77;4.70;;;20.60;99.90;;;;;;5053777;28;20456;-57
2021/09/17 11:14:00;;;;;;;4.23;3.83;;;21.00;99.90;;;;;;5052883;28;20897;-58
2021/09/17 11:16:29;;;;;;;4.57;4.17;;;21.20;99.90;;;;;;5053855;28;21007;-59
2021/09/17 11:19:00;;;;;;;4.40;4.00;;;21.60;99.90;;;;;;5061915;28;20483;-59
2021/09/17 11:21:28;;;;;;;3.70;3.40;;;21.80;99.90;;;;;;5053843;28;20459;-58
2021/09/17 11:23:55;;;;;;;4.80;4.40;;;21.80;99.90;;;;;;5053896;28;20570;-59
2021/09/17 11:26:25;;;;;;;4.03;3.70;;;21.90;99.90;;;;;;5056456;28;20528;-58
2021/09/17 11:29:02;;;;;;;5.87;4.70;;;21.50;99.90;;;;;;5073900;28;20442;-58
2021/09/17 11:31:33;;;;;;;5.20;4.70;;;21.20;99.90;;;;;;5073615;28;20451;-58
2021/09/17 11:34:02;;;;;;;4.73;4.17;;;21.10;99.90;;;;;;5073775;28;20463;-59
2021/09/17 11:36:41;;;;;;;5.43;4.30;;;21.10;99.90;;;;;;5072438;28;20452;-58
2021/09/17 11:39:18;;;;;;;4.90;4.40;;;20.90;99.90;;;;;;5073442;28;20474;-59
2021/09/17 11:41:47;;;;;;;6.43;3.90;;;20.90;99.90;;;;;;5073018;28;20545;-58
2021/09/17 11:44:33;;;;;;;4.80;4.33;;;21.10;99.90;;;;;;5073513;28;20512;-59
2021/09/17 11:47:00;;;;;;;6.83;4.23;;;21.50;99.90;;;;;;5092803;22;20555;-57
2021/09/17 11:49:28;;;;;;;4.13;3.73;;;21.30;99.90;;;;;;5072808;28;20455;-55
2021/09/17 11:51:59;;;;;;;4.40;4.00;;;21.40;99.90;;;;;;5067538;28;20443;-55
2021/09/17 11:54:27;;;;;;;6.70;4.43;;;21.00;99.90;;;;;;5057633;28;20518;-54
2021/09/17 11:57:02;;;;;;;5.40;4.60;;;20.50;99.90;;;;;;5044875;28;20494;-55
2021/09/17 11:59:38;;;;;;;4.23;3.83;;;20.20;99.90;;;;;;5051255;28;20541;-54
2021/09/17 12:02:14;;;;;;;4.60;4.10;;;20.40;99.90;;;;;;5051356;28;20497;-55
2021/09/17 12:04:43;;;;;;;3.83;3.43;;;20.80;99.90;;;;;;5051179;28;20439;-55
2021/09/17 12:07:11;;;;;;;4.27;3.83;;;21.00;99.90;;;;;;5050608;28;20537;-56
2021/09/17 12:09:38;;;;;;;4.17;3.77;;;21.10;99.90;;;;;;5037872;28;20440;-55
2021/09/17 12:12:06;;;;;;;4.40;3.80;;;20.80;99.90;;;;;;5032223;28;20472;-54
2021/09/17 12:14:33;;;;;;;4.50;3.77;;;20.60;99.90;;;;;;5032440;28;20947;-55
2021/09/17 12:17:06;;;;;;;5.70;3.37;;;20.60;99.90;;;;;;5032486;28;20530;-55
2021/09/17 12:19:55;;;;;;;3.80;3.40;;;20.50;99.90;;;;;;5032338;28;20508;-53
2021/09/17 12:22:34;;;;;;;4.70;3.60;;;20.70;99.90;;;;;;5035032;28;20448;-51
2021/09/17 12:25:12;;;;;;;4.40;3.40;;;20.70;99.90;;;;;;5050694;28;20531;-53
2021/09/17 12:27:42;;;;;;;3.73;3.43;;;20.70;99.90;;;;;;5051028;28;20948;-52
2021/09/17 12:30:11;;;;;;;4.27;3.30;;;20.60;99.90;;;;;;5050703;28;20440;-53
2021/09/17 12:32:41;;;;;;;3.57;3.27;;;20.40;99.90;;;;;;5050770;28;20440;-52
2021/09/17 12:35:11;;;;;;;3.50;3.23;;;20.50;99.90;;;;;;5050488;28;20446;-53
2021/09/17 12:37:40;;;;;;;4.00;3.60;;;20.80;99.90;;;;;;5050599;28;20444;-51
2021/09/17 12:40:15;;;;;;;3.60;3.30;;;20.70;99.90;;;;;;5050135;28;20484;-53
2021/09/17 12:42:43;;;;;;;3.30;3.00;;;20.60;99.90;;;;;;5048200;28;20470;-52